Time;durP1;ratioP1;P1;durP2;ratioP2;P2;SDS_P1;SDS_P2;PMS_P1;PMS_P2;Temp;Humidity;BMP_temperature;BMP_pressure;BME280_temperature;BME280_humidity;BME280_pressure;Samples;Min_cycle;Max_cycle;Signal;HPM_P1;HPM_P2
2021/07/14 00:00:54;;;;;;;17.98;8.90;;;;;;;18.81;85.16;100955.14;1758309;81;20892;-78
2021/07/14 00:03:21;;;;;;;12.98;8.55;;;;;;;18.80;85.11;100944.14;1758275;81;21429;-77
2021/07/14 00:05:49;;;;;;;12.37;8.20;;;;;;;18.78;85.20;100951.41;1758407;81;20975;-78
2021/07/14 00:08:16;;;;;;;13.05;8.68;;;;;;;18.76;85.06;100944.02;1758339;81;20963;-78
2021/07/14 00:10:43;;;;;;;16.50;8.65;;;;;;;18.73;85.00;100952.78;1758369;81;21557;-78
2021/07/14 00:13:26;;;;;;;16.67;8.23;;;;;;;18.70;85.20;100943.73;1758147;81;20892;-78
2021/07/14 00:24:04;;;;;;;11.70;8.50;;;;;;;18.60;85.49;100947.21;1758282;81;21405;-76
2021/07/14 00:26:28;;;;;;;19.05;7.70;;;;;;;18.58;85.65;100941.69;1758212;80;20872;-78
2021/07/14 00:28:55;;;;;;;14.75;8.03;;;;;;;18.56;85.62;100946.30;1758261;81;21468;-77
2021/07/14 00:31:22;;;;;;;14.15;7.78;;;;;;;18.53;85.40;100954.05;1758481;80;20939;-78
2021/07/14 00:33:49;;;;;;;16.90;8.13;;;;;;;18.51;85.26;100949.36;1758232;81;20865;-78
2021/07/14 00:36:17;;;;;;;11.63;8.05;;;;;;;18.49;85.19;100953.96;1758227;81;20980;-79
2021/07/14 00:38:46;;;;;;;12.75;7.58;;;;;;;18.46;85.27;100952.08;1758213;80;21401;-78
2021/07/14 00:41:13;;;;;;;14.38;7.80;;;;;;;18.44;85.15;100956.20;1758627;81;20927;-79
2021/07/14 00:43:39;;;;;;;12.60;7.60;;;;;;;18.40;85.05;100948.97;1758249;81;20889;-77
2021/07/14 00:46:23;;;;;;;14.10;8.08;;;;;;;18.38;85.06;100950.09;1758566;80;20979;-80
2021/07/14 00:48:52;;;;;;;13.38;7.85;;;;;;;18.34;85.21;100950.00;1758415;80;21147;-79
2021/07/14 00:51:19;;;;;;;18.40;8.40;;;;;;;18.32;85.35;100950.16;1758386;80;20920;-79
2021/07/14 00:53:46;;;;;;;14.10;8.25;;;;;;;18.29;85.34;100957.53;1758621;81;21385;-80
2021/07/14 00:56:14;;;;;;;16.65;7.00;;;;;;;18.25;85.21;100954.30;1758905;81;20900;-79
2021/07/14 00:58:41;;;;;;;14.35;6.92;;;;;;;18.24;85.23;100955.28;1758608;80;21381;-79
2021/07/14 01:01:08;;;;;;;9.25;6.85;;;;;;;18.21;85.12;100957.72;1758765;81;21154;-80
2021/07/14 01:03:48;;;;;;;8.43;6.20;;;;;;;18.20;85.05;100959.17;1758232;81;21407;-78
2021/07/14 01:06:23;;;;;;;13.32;6.35;;;;;;;18.17;85.04;100951.48;1721480;82;20927;-80
2021/07/14 01:09:03;;;;;;;10.00;7.35;;;;;;;18.14;85.05;100959.70;1721477;83;20943;-80
2021/07/14 01:11:33;;;;;;;12.43;7.47;;;;;;;18.12;85.13;100953.67;1722153;83;20852;-79
2021/07/14 01:14:22;;;;;;;13.25;7.25;;;;;;;18.10;85.26;100962.29;1721879;83;21958;-79
2021/07/14 01:17:04;;;;;;;17.60;7.72;;;;;;;18.07;85.11;100959.38;1721788;83;20978;-79
2021/07/14 01:20:00;;;;;;;13.40;7.50;;;;;;;18.05;85.09;100959.17;1721858;83;20920;-80
2021/07/14 01:22:42;;;;;;;12.10;7.37;;;;;;;18.01;85.30;100965.25;1721962;83;21424;-81
2021/07/14 01:25:30;;;;;;;14.05;7.28;;;;;;;17.97;85.60;100960.67;1721981;82;21389;-81
2021/07/14 01:27:58;;;;;;;8.60;6.78;;;;;;;17.94;85.69;100963.61;1721768;83;21146;-80
2021/07/14 01:30:26;;;;;;;13.38;6.95;;;;;;;17.92;85.90;100958.05;1721764;83;20967;-78
2021/07/14 01:32:53;;;;;;;11.48;6.95;;;;;;;17.91;86.04;100957.70;1695335;83;20872;-80
2021/07/14 01:35:24;;;;;;;12.18;7.97;;;;;;;17.88;86.13;100959.31;1722125;83;20895;-79
2021/07/14 01:37:51;;;;;;;13.20;7.28;;;;;;;17.86;86.23;100963.41;1722000;83;20883;-78
2021/07/14 01:40:19;;;;;;;10.55;7.35;;;;;;;17.85;86.12;100963.03;1695547;83;21150;-78
2021/07/14 01:42:48;;;;;;;13.55;8.43;;;;;;;17.83;85.83;100968.98;1721750;83;20975;-79
2021/07/14 01:45:15;;;;;;;18.05;7.80;;;;;;;17.81;86.03;100967.78;1721834;83;20939;-81
2021/07/14 01:47:42;;;;;;;12.50;6.78;;;;;;;17.79;86.00;100961.73;1721968;83;20903;-81
2021/07/14 01:50:11;;;;;;;13.55;6.97;;;;;;;17.78;86.04;100960.03;1722286;83;20912;-80
2021/07/14 01:52:39;;;;;;;10.28;6.75;;;;;;;17.77;85.93;100978.75;1719899;82;20991;-79
2021/07/14 01:55:07;;;;;;;10.32;6.05;;;;;;;17.75;85.98;100972.73;1716823;83;20968;-78
2021/07/14 01:57:35;;;;;;;15.88;7.03;;;;;;;17.74;86.12;100975.88;1716589;82;20896;-78
2021/07/14 02:00:07;;;;;;;14.45;8.28;;;;;;;17.73;86.10;100979.98;1734400;82;20968;-79
2021/07/14 02:02:48;;;;;;;14.20;6.12;;;;;;;17.73;86.07;100988.77;1752186;81;21494;-78
2021/07/14 02:05:08;;;;;;;14.35;7.37;;;;;;;17.72;85.86;100987.56;1751512;81;21809;-78
2021/07/14 02:07:35;;;;;;;21.40;7.50;;;;;;;17.71;85.84;100985.90;1752773;82;20913;-78
2021/07/14 02:10:02;;;;;;;17.07;7.33;;;;;;;17.69;85.67;100982.04;1752607;82;20924;-77
2021/07/14 02:12:32;;;;;;;17.10;7.90;;;;;;;17.68;85.91;100986.17;1752447;82;20948;-79
2021/07/14 02:15:09;;;;;;;13.58;7.40;;;;;;;17.66;85.78;100981.48;1752887;82;20865;-79
2021/07/14 02:17:44;;;;;;;11.88;8.25;;;;;;;17.65;85.64;100985.08;1752609;80;21139;-79
2021/07/14 02:20:16;;;;;;;16.95;8.88;;;;;;;17.63;85.74;100985.23;1716585;83;20910;-78
2021/07/14 02:22:43;;;;;;;20.57;10.20;;;;;;;17.62;85.86;100980.88;1717007;82;20880;-79
2021/07/14 02:25:11;;;;;;;17.90;8.95;;;;;;;17.62;85.80;100980.88;1752709;82;20873;-79
2021/07/14 02:27:40;;;;;;;17.32;7.72;;;;;;;17.63;85.71;100985.69;1752504;82;20983;-78
2021/07/14 02:30:19;;;;;;;17.80;8.28;;;;;;;17.61;85.78;100977.39;1752937;82;22170;-79
2021/07/14 02:32:44;;;;;;;15.65;7.35;;;;;;;17.61;85.96;100975.23;1750605;80;20908;-78
2021/07/14 02:35:12;;;;;;;14.73;7.67;;;;;;;17.61;86.17;100981.86;1752862;80;20845;-78
2021/07/14 02:37:44;;;;;;;14.60;8.10;;;;;;;17.61;86.25;100983.19;1716691;82;21409;-80
2021/07/14 02:40:13;;;;;;;18.37;8.13;;;;;;;17.61;86.14;100981.38;1716694;82;21388;-82
2021/07/14 02:42:41;;;;;;;15.63;7.42;;;;;;;17.61;86.11;100980.54;1716772;83;21996;-79
2021/07/14 02:45:08;;;;;;;15.75;7.90;;;;;;;17.61;86.15;100981.38;1716691;83;20900;-80
2021/07/14 02:47:38;;;;;;;18.85;7.53;;;;;;;17.62;86.15;100983.53;1716716;83;21585;-76
2021/07/14 02:50:17;;;;;;;13.98;7.62;;;;;;;17.62;86.21;100982.20;1716336;83;20943;-75
2021/07/14 02:52:48;;;;;;;13.88;7.80;;;;;;;17.61;86.21;100990.66;1714316;82;21062;-79
2021/07/14 02:55:19;;;;;;;14.75;8.50;;;;;;;17.60;86.18;100990.77;1708881;83;21172;-78
2021/07/14 02:57:52;;;;;;;16.23;8.40;;;;;;;17.58;86.23;100990.89;1708737;84;20972;-79
2021/07/14 03:00:19;;;;;;;15.15;8.20;;;;;;;17.58;86.40;100987.41;1708663;84;20928;-77
2021/07/14 03:02:47;;;;;;;16.90;8.63;;;;;;;17.59;86.53;100989.11;1708817;84;21508;-80
2021/07/14 03:05:15;;;;;;;16.30;9.58;;;;;;;17.60;86.73;100985.47;1708917;84;21363;-80
2021/07/14 03:07:42;;;;;;;17.12;9.35;;;;;;;17.62;86.91;100996.80;1708739;84;21786;-78
2021/07/14 03:10:09;;;;;;;20.15;9.38;;;;;;;17.63;87.04;100995.84;1708688;84;20884;-80
2021/07/14 03:12:36;;;;;;;12.30;8.95;;;;;;;17.66;87.25;100996.06;1708786;82;20892;-80
2021/07/14 03:15:09;;;;;;;12.80;9.33;;;;;;;17.68;87.37;101000.76;1708813;84;20892;-79
2021/07/14 03:17:36;;;;;;;16.10;8.88;;;;;;;17.71;87.41;100997.84;1708790;84;21003;-77
2021/07/14 03:20:09;;;;;;;12.78;9.75;;;;;;;17.75;87.61;101004.08;1734469;82;21023;-78
2021/07/14 03:22:38;;;;;;;17.37;11.68;;;;;;;17.78;87.70;101005.13;1744711;82;21000;-78
2021/07/14 03:25:06;;;;;;;13.93;9.70;;;;;;;17.83;87.76;101010.58;1744770;82;20869;-78
2021/07/14 03:27:33;;;;;;;18.35;9.80;;;;;;;17.87;87.87;101006.20;1744438;82;21413;-77
2021/07/14 03:29:59;;;;;;;12.05;10.10;;;;;;;17.91;87.95;101009.45;1744792;82;20965;-77
2021/07/14 03:32:27;;;;;;;14.15;10.25;;;;;;;17.96;88.12;101002.80;1734131;82;22033;-77
2021/07/14 03:34:54;;;;;;;14.00;9.23;;;;;;;18.02;88.17;101000.92;1744792;82;20881;-76
2021/07/14 03:37:23;;;;;;;13.93;9.30;;;;;;;18.09;88.24;101004.38;1744507;81;20886;-76
2021/07/14 03:39:50;;;;;;;14.10;8.53;;;;;;;18.15;88.25;101006.52;1758974;80;20972;-76
2021/07/14 03:42:17;;;;;;;12.35;9.08;;;;;;;18.22;88.22;101005.84;1687560;84;20892;-77
2021/07/14 03:44:46;;;;;;;15.15;9.43;;;;;;;18.29;88.29;101004.83;1709344;82;21008;-77
2021/07/14 03:47:16;;;;;;;18.70;9.53;;;;;;;18.37;88.36;101009.50;1708715;84;21421;-77
2021/07/14 03:49:45;;;;;;;17.70;9.18;;;;;;;18.46;88.42;101015.33;1709008;84;20857;-78
2021/07/14 03:52:14;;;;;;;17.20;8.95;;;;;;;18.53;88.32;101021.78;1708751;84;20896;-80
2021/07/14 03:54:41;;;;;;;14.75;8.88;;;;;;;18.61;88.25;101012.66;1714276;83;20868;-76
2021/07/14 03:57:09;;;;;;;17.50;9.20;;;;;;;18.70;88.15;101015.00;1716486;83;20964;-78
2021/07/14 03:59:38;;;;;;;13.13;8.90;;;;;;;18.78;88.07;101026.30;1688495;83;21532;-77
2021/07/14 04:02:10;;;;;;;18.27;9.98;;;;;;;18.88;88.01;101023.69;1716306;82;20896;-80
2021/07/14 04:04:37;;;;;;;14.23;8.88;;;;;;;18.97;88.00;101027.69;1716632;83;20939;-80
2021/07/14 04:07:17;;;;;;;15.15;9.58;;;;;;;19.08;87.87;101026.73;1716581;83;20907;-81
2021/07/14 04:09:46;;;;;;;21.93;11.63;;;;;;;19.20;87.74;101026.11;1716510;83;21967;-79
2021/07/14 04:12:16;;;;;;;16.65;9.58;;;;;;;19.31;87.28;101025.98;1752510;82;21584;-80
2021/07/14 04:14:43;;;;;;;16.23;10.20;;;;;;;19.47;86.81;101030.74;1752759;81;20880;-83
2021/07/14 04:17:10;;;;;;;25.10;10.05;;;;;;;19.65;86.31;101034.87;1752898;82;20924;-85
2021/07/14 04:19:39;;;;;;;16.32;9.30;;;;;;;19.87;86.03;101033.27;1752685;82;20940;-80
2021/07/14 04:22:08;;;;;;;14.40;8.58;;;;;;;20.14;85.65;101033.50;1716276;83;21083;-80
2021/07/14 04:24:35;;;;;;;18.02;10.80;;;;;;;20.53;85.27;101034.21;1716336;83;21043;-78
2021/07/14 04:27:02;;;;;;;14.05;8.95;;;;;;;21.10;84.32;101033.59;1752870;80;20997;-77
2021/07/14 04:29:30;;;;;;;19.30;8.75;;;;;;;21.76;82.56;101038.20;1752330;80;21050;-77
2021/07/14 04:31:57;;;;;;;24.23;9.68;;;;;;;22.47;80.51;101035.86;1752757;82;20956;-76
2021/07/14 04:34:24;;;;;;;16.75;9.73;;;;;;;23.22;78.06;101043.17;1752506;82;21114;-77
2021/07/14 04:36:51;;;;;;;21.05;10.48;;;;;;;23.92;75.38;101040.06;1752651;80;20857;-77
2021/07/14 04:39:19;;;;;;;24.15;12.35;;;;;;;24.62;73.05;101030.52;1752722;80;21390;-80
2021/07/14 04:41:47;;;;;;;26.07;9.90;;;;;;;25.26;69.28;101030.37;1752615;82;20952;-78
2021/07/14 04:44:28;;;;;;;26.68;10.85;;;;;;;25.84;60.20;101026.71;1752666;82;20928;-77
2021/07/14 04:46:43;;;;;;;21.50;10.05;;;;;;;26.38;56.79;101029.70;1751206;81;21915;-78
2021/07/14 04:49:11;;;;;;;17.12;9.68;;;;;;;26.91;55.30;101030.40;1752660;82;20910;-83
2021/07/14 04:51:38;;;;;;;20.90;9.08;;;;;;;27.43;51.32;101031.16;1717289;83;21077;-86
2021/07/14 04:54:07;;;;;;;20.50;8.18;;;;;;;27.89;50.65;101028.06;1715553;81;20970;-82
2021/07/14 04:56:34;;;;;;;17.17;7.62;;;;;;;28.37;48.64;101041.66;1711516;82;20889;-80
2021/07/14 04:59:02;;;;;;;21.10;7.42;;;;;;;28.82;46.87;101029.13;1710000;84;21501;-82
2021/07/14 05:01:31;;;;;;;17.57;7.85;;;;;;;29.25;45.96;101026.13;1708811;82;20920;-78
2021/07/14 05:03:58;;;;;;;19.95;7.62;;;;;;;29.61;45.83;101021.68;1708782;84;20912;-79
2021/07/14 05:06:25;;;;;;;20.08;7.83;;;;;;;30.02;47.79;101026.06;1708840;82;20999;-79
2021/07/14 05:08:52;;;;;;;19.95;8.23;;;;;;;30.40;46.16;101025.38;1708782;84;20852;-78
2021/07/14 05:11:19;;;;;;;21.77;7.97;;;;;;;30.71;45.76;101026.50;1708916;84;21139;-81
2021/07/14 05:13:45;;;;;;;21.68;9.48;;;;;;;31.05;46.83;101023.12;1708782;84;21041;-81
2021/07/14 05:16:12;;;;;;;16.77;7.28;;;;;;;31.35;45.21;101024.70;1708807;84;20916;-79
2021/07/14 05:18:41;;;;;;;18.10;5.70;;;;;;;31.65;41.23;101024.89;1708750;84;20900;-77
2021/07/14 05:21:07;;;;;;;17.55;6.53;;;;;;;31.95;39.31;101025.55;1708885;84;20936;-77
2021/07/14 05:23:34;;;;;;;16.90;5.62;;;;;;;32.23;38.90;101031.05;1708839;82;21149;-79
2021/07/14 05:26:03;;;;;;;13.55;5.85;;;;;;;32.48;37.48;101030.42;1708735;84;20841;-79
2021/07/14 05:28:30;;;;;;;19.10;7.20;;;;;;;32.72;36.61;101026.51;1709179;84;20916;-79
2021/07/14 05:30:57;;;;;;;16.35;5.95;;;;;;;32.93;37.00;101023.80;1708856;84;20952;-78
2021/07/14 05:33:23;;;;;;;11.83;4.75;;;;;;;33.18;36.07;101023.70;1709159;84;21470;-77
2021/07/14 05:35:54;;;;;;;14.50;4.37;;;;;;;33.41;34.47;101016.11;1708861;82;21140;-79
2021/07/14 05:38:20;;;;;;;16.50;4.55;;;;;;;33.61;33.16;101023.44;1708628;83;21524;-79
2021/07/14 05:40:48;;;;;;;15.08;5.37;;;;;;;33.84;33.10;101023.99;1708842;84;20983;-77
2021/07/14 05:43:15;;;;;;;20.72;5.62;;;;;;;34.08;33.85;101022.59;1709024;84;20925;-79
2021/07/14 05:45:42;;;;;;;11.65;5.95;;;;;;;34.32;33.82;101021.23;1708793;84;20924;-78
2021/07/14 05:48:09;;;;;;;18.07;4.95;;;;;;;34.42;33.88;101023.64;1709146;83;21130;-79
2021/07/14 05:50:36;;;;;;;13.85;5.75;;;;;;;34.50;33.69;101023.78;1708789;82;20967;-66
2021/07/14 05:53:04;;;;;;;16.93;5.53;;;;;;;34.57;33.29;101024.47;1709078;82;20873;-65
2021/07/14 05:55:32;;;;;;;15.25;5.72;;;;;;;34.58;33.22;101023.41;1708731;83;20897;-66
2021/07/14 05:57:59;;;;;;;8.40;4.58;;;;;;;34.54;33.16;101029.59;1708772;84;21007;-67
2021/07/14 06:00:27;;;;;;;14.55;4.85;;;;;;;34.45;34.49;101024.51;1708835;84;21165;-66
2021/07/14 06:02:53;;;;;;;13.88;4.37;;;;;;;34.56;34.50;101031.53;1708820;84;20940;-65
2021/07/14 06:05:20;;;;;;;12.10;3.80;;;;;;;34.67;32.82;101029.34;1708835;82;20892;-65
2021/07/14 06:07:47;;;;;;;8.10;3.65;;;;;;;34.82;33.24;101024.19;1708837;83;20995;-66
2021/07/14 06:10:14;;;;;;;7.60;3.50;;;;;;;34.93;31.73;101029.30;1708969;84;21338;-65
2021/07/14 06:12:43;;;;;;;7.25;3.27;;;;;;;35.03;32.48;101025.38;1708834;82;21120;-64
2021/07/14 06:15:11;;;;;;;13.05;3.77;;;;;;;35.21;31.85;101028.44;1708805;84;21041;-64
2021/07/14 06:17:38;;;;;;;10.85;3.80;;;;;;;35.25;31.33;101026.87;1709021;84;20939;-64
2021/07/14 06:20:08;;;;;;;9.70;3.62;;;;;;;35.32;31.12;101027.27;1708847;84;20964;-64
2021/07/14 06:22:35;;;;;;;13.93;5.33;;;;;;;35.46;32.08;101024.48;1708932;82;21350;-64
2021/07/14 06:25:02;;;;;;;5.75;3.70;;;;;;;35.68;32.32;101028.14;1708852;84;21819;-64
2021/07/14 06:27:33;;;;;;;9.48;3.08;;;;;;;35.83;32.47;101023.45;1708803;84;20947;-64
2021/07/14 06:30:05;;;;;;;9.28;2.65;;;;;;;35.92;31.05;101027.95;1708951;84;21494;-64
2021/07/14 06:32:29;;;;;;;7.35;2.60;;;;;;;35.89;31.44;101025.19;1708428;82;20939;-64
2021/07/14 06:34:56;;;;;;;8.65;2.70;;;;;;;36.02;31.70;101028.11;1708851;84;20865;-65
2021/07/14 06:37:23;;;;;;;6.65;2.37;;;;;;;36.15;30.51;101032.92;1708838;84;21112;-65
2021/07/14 06:39:51;;;;;;;8.15;2.58;;;;;;;36.22;29.79;101029.47;1708924;82;21442;-64
2021/07/14 06:42:18;;;;;;;7.85;2.50;;;;;;;36.25;29.88;101029.80;1708768;84;20967;-64
2021/07/14 06:44:44;;;;;;;8.68;3.05;;;;;;;36.21;30.19;101027.83;1708928;83;20889;-64
2021/07/14 06:47:13;;;;;;;9.03;2.42;;;;;;;36.22;29.99;101030.31;1708923;84;21370;-65
2021/07/14 06:49:40;;;;;;;9.78;2.70;;;;;;;36.25;30.20;101028.98;1708831;84;21157;-64
2021/07/14 06:52:08;;;;;;;8.23;3.05;;;;;;;36.29;31.07;101029.58;1708794;83;20975;-66
2021/07/14 06:54:38;;;;;;;6.97;3.60;;;;;;;36.31;30.41;101026.06;1711153;83;20936;-65
2021/07/14 06:57:06;;;;;;;13.65;2.70;;;;;;;36.32;29.51;101026.87;1716758;83;21522;-64
2021/07/14 06:59:33;;;;;;;6.53;2.75;;;;;;;36.26;29.40;101027.37;1752688;81;20845;-64
2021/07/14 07:02:02;;;;;;;5.62;2.50;;;;;;;36.31;29.06;101026.61;1716342;83;21156;-64
2021/07/14 07:04:31;;;;;;;12.15;2.50;;;;;;;36.30;27.87;101025.75;1716419;83;21393;-65
2021/07/14 07:06:58;;;;;;;6.75;2.42;;;;;;;36.28;28.59;101025.73;1716566;83;20895;-65
2021/07/14 07:09:26;;;;;;;4.50;2.30;;;;;;;36.40;28.45;101024.25;1716344;83;21011;-66
2021/07/14 07:11:53;;;;;;;7.83;1.98;;;;;;;36.52;28.84;101028.48;1716828;83;21446;-66
2021/07/14 07:14:22;;;;;;;7.85;2.12;;;;;;;36.61;28.32;101022.05;1716477;83;20884;-64
2021/07/14 07:16:51;;;;;;;5.30;2.35;;;;;;;36.77;28.05;101022.22;1716530;83;20896;-65
2021/07/14 07:19:17;;;;;;;6.65;2.33;;;;;;;36.99;28.83;101027.09;1716717;83;20983;-66
2021/07/14 07:21:44;;;;;;;10.30;2.90;;;;;;;37.21;27.29;101022.14;1716428;83;20939;-64
2021/07/14 07:24:11;;;;;;;3.85;2.08;;;;;;;37.37;27.86;101023.08;1716442;82;20895;-65
2021/07/14 07:26:38;;;;;;;10.13;2.70;;;;;;;37.51;27.00;101026.49;1716356;83;21537;-64
2021/07/14 07:29:05;;;;;;;7.42;2.05;;;;;;;37.66;27.25;101020.86;1716402;83;21402;-65
2021/07/14 07:31:33;;;;;;;2.77;1.95;;;;;;;37.71;27.50;101016.26;1716396;82;20872;-65
2021/07/14 07:34:00;;;;;;;6.30;2.58;;;;;;;37.77;26.81;101015.73;1716141;83;20892;-66
2021/07/14 07:36:27;;;;;;;8.73;2.35;;;;;;;37.97;27.33;101014.20;1716458;83;20880;-67
2021/07/14 07:38:54;;;;;;;11.45;2.62;;;;;;;38.23;27.11;101014.64;1716519;83;21821;-64
2021/07/14 07:41:22;;;;;;;9.10;2.12;;;;;;;38.41;27.30;101007.84;1716270;83;20924;-65
2021/07/14 07:43:49;;;;;;;5.90;2.52;;;;;;;38.56;27.47;101007.11;1716488;83;20880;-65
2021/07/14 07:46:16;;;;;;;5.78;2.00;;;;;;;38.65;26.48;101012.34;1716499;83;21424;-65
2021/07/14 07:48:43;;;;;;;8.35;1.87;;;;;;;38.80;26.08;101009.34;1716607;83;20927;-66
2021/07/14 07:51:10;;;;;;;7.70;2.25;;;;;;;39.01;25.97;101011.05;1716440;82;21227;-65
2021/07/14 07:53:39;;;;;;;10.88;1.85;;;;;;;39.11;24.96;101008.84;1716306;82;20932;-65
2021/07/14 07:56:06;;;;;;;4.58;2.37;;;;;;;39.13;24.30;101009.40;1710124;82;20967;-65
2021/07/14 07:58:36;;;;;;;5.58;2.15;;;;;;;39.03;24.35;101006.67;1708773;84;20869;-65
2021/07/14 08:01:03;;;;;;;4.60;2.08;;;;;;;39.02;24.76;101007.23;1708659;84;21287;-65
2021/07/14 08:03:30;;;;;;;8.53;2.12;;;;;;;39.03;24.43;101008.86;1708788;83;21144;-64
2021/07/14 08:05:57;;;;;;;7.78;1.80;;;;;;;39.13;24.39;101004.76;1708912;84;20971;-65
2021/07/14 08:08:24;;;;;;;5.37;1.85;;;;;;;39.22;24.36;101008.30;1708779;84;20877;-66
2021/07/14 08:10:55;;;;;;;5.62;2.25;;;;;;;39.35;24.58;100998.14;1708757;84;20908;-65
2021/07/14 08:13:21;;;;;;;6.60;1.92;;;;;;;39.37;24.12;101000.88;1708813;84;21370;-67
2021/07/14 08:15:49;;;;;;;6.87;2.10;;;;;;;39.39;24.43;101000.65;1709192;84;21110;-68
2021/07/14 08:18:18;;;;;;;11.08;2.25;;;;;;;39.45;24.44;100994.62;1708754;84;20976;-69
2021/07/14 08:20:47;;;;;;;6.12;2.33;;;;;;;39.56;24.63;100996.24;1708878;84;21452;-68
2021/07/14 08:23:14;;;;;;;10.82;2.10;;;;;;;39.64;23.88;100986.60;1708826;82;21374;-68
2021/07/14 08:25:41;;;;;;;8.88;2.05;;;;;;;39.69;23.80;100988.80;1708808;84;20904;-69
2021/07/14 08:28:07;;;;;;;7.80;2.27;;;;;;;39.67;22.84;100987.44;1709018;82;21498;-69
2021/07/14 08:30:35;;;;;;;8.63;2.10;;;;;;;39.56;23.01;100988.00;1708843;84;20869;-67
2021/07/14 08:33:01;;;;;;;7.28;1.82;;;;;;;39.49;22.90;100978.69;1709097;82;20924;-69
2021/07/14 08:35:28;;;;;;;4.97;1.45;;;;;;;39.60;23.19;100990.47;1708808;84;20943;-67
2021/07/14 08:37:56;;;;;;;6.45;1.57;;;;;;;39.64;21.88;100981.11;1708889;84;20931;-73
2021/07/14 08:40:23;;;;;;;6.97;1.60;;;;;;;39.72;21.33;100979.99;1708808;84;21196;-74
2021/07/14 08:42:50;;;;;;;3.50;1.47;;;;;;;39.86;22.63;100979.44;1709073;84;20924;-75
2021/07/14 08:45:20;;;;;;;3.27;1.05;;;;;;;40.02;21.17;100976.89;1708878;84;21493;-73
2021/07/14 08:47:47;;;;;;;9.73;2.27;;;;;;;40.10;20.30;100984.56;1709047;84;20979;-74
2021/07/14 08:50:16;;;;;;;3.40;1.17;;;;;;;40.16;21.05;100977.94;1708938;84;20901;-75
2021/07/14 08:52:45;;;;;;;1.87;1.10;;;;;;;40.27;20.48;100981.50;1709153;82;21532;-76
2021/07/14 08:55:12;;;;;;;3.15;1.10;;;;;;;40.39;20.22;100983.34;1708875;83;20913;-74
2021/07/14 08:57:39;;;;;;;2.87;0.95;;;;;;;40.52;19.35;100981.89;1709111;82;20944;-73
2021/07/14 09:00:14;;;;;;;2.70;0.93;;;;;;;40.58;18.91;100984.89;1708835;84;20991;-75
2021/07/14 09:02:41;;;;;;;3.02;0.93;;;;;;;40.58;18.50;100977.20;1709184;84;20896;-72
2021/07/14 09:05:09;;;;;;;4.40;1.72;;;;;;;40.57;19.74;100981.85;1708756;82;21574;-70
2021/07/14 09:07:37;;;;;;;5.08;1.15;;;;;;;40.60;19.16;100984.61;1708764;82;21450;-73
2021/07/14 09:10:06;;;;;;;1.67;1.00;;;;;;;40.55;19.14;100982.69;1708811;84;20900;-72
2021/07/14 09:12:41;;;;;;;2.27;0.68;;;;;;;40.52;19.28;100976.40;1709181;83;20872;-73
2021/07/14 09:15:14;;;;;;;4.33;0.72;;;;;;;40.51;17.39;100976.14;1708889;83;20967;-72
2021/07/14 09:17:51;;;;;;;4.33;1.05;;;;;;;40.49;16.25;100974.76;1708873;84;21310;-72
2021/07/14 09:20:29;;;;;;;3.85;0.60;;;;;;;40.49;16.89;100969.26;1708759;84;20833;-72
2021/07/14 09:23:17;;;;;;;1.85;0.78;;;;;;;40.40;15.09;100971.81;1708723;82;21011;-73
2021/07/14 09:25:56;;;;;;;4.08;0.95;;;;;;;40.21;17.20;100963.35;1708718;82;20916;-73
2021/07/14 09:28:34;;;;;;;2.17;0.60;;;;;;;40.19;18.25;100965.00;1709138;82;20888;-74
2021/07/14 09:31:04;;;;;;;5.62;0.93;;;;;;;40.18;18.30;100954.31;1709115;84;21045;-74
2021/07/14 09:33:33;;;;;;;3.25;0.80;;;;;;;40.16;18.75;100952.39;1709033;84;20833;-77
2021/07/14 09:36:02;;;;;;;4.12;0.75;;;;;;;40.14;18.63;100953.23;1708791;84;21382;-75
2021/07/14 09:38:32;;;;;;;2.98;0.95;;;;;;;40.14;18.35;100948.55;1708752;82;20975;-74
2021/07/14 09:41:04;;;;;;;4.08;1.10;;;;;;;40.17;19.04;100947.97;1709212;83;20995;-74
2021/07/14 09:43:39;;;;;;;6.72;1.20;;;;;;;40.28;19.28;100952.89;1744565;81;21323;-73
2021/07/14 09:46:10;;;;;;;2.40;0.70;;;;;;;40.33;19.13;100944.64;1744496;81;20893;-74
2021/07/14 09:48:46;;;;;;;4.08;1.00;;;;;;;40.35;19.86;100953.95;1744739;81;21398;-73
2021/07/14 09:51:19;;;;;;;1.65;1.00;;;;;;;40.40;19.37;100952.02;1744825;82;21402;-71
2021/07/14 09:53:54;;;;;;;1.92;0.88;;;;;;;40.45;18.32;100949.78;1744642;82;21451;-72
2021/07/14 09:56:27;;;;;;;5.78;1.10;;;;;;;40.48;18.40;100956.07;1744514;80;21124;-74
2021/07/14 09:59:09;;;;;;;2.12;1.20;;;;;;;40.48;18.42;100950.57;1744544;80;20889;-76
2021/07/14 10:01:49;;;;;;;0.98;0.78;;;;;;;40.43;18.61;100956.67;1744737;81;21569;-77
2021/07/14 10:04:32;;;;;;;3.47;0.90;;;;;;;40.37;18.99;100951.19;1744579;82;21485;-77
2021/07/14 10:07:09;;;;;;;7.20;0.98;;;;;;;40.39;18.96;100961.34;1708987;82;20997;-76
2021/07/14 10:09:36;;;;;;;1.72;0.65;;;;;;;40.36;19.19;100959.73;1708813;84;22197;-79
2021/07/14 10:12:32;;;;;;;2.58;1.15;;;;;;;40.32;19.12;100957.28;1709031;82;21354;-75
2021/07/14 10:15:15;;;;;;;1.50;0.60;;;;;;;40.37;19.18;100956.69;1708924;84;20908;-79
2021/07/14 10:17:45;;;;;;;2.02;1.10;;;;;;;40.45;18.54;100958.03;1709092;83;20904;-78
2021/07/14 10:20:35;;;;;;;3.70;2.37;;;;;;;40.54;19.03;100955.50;1709003;84;20849;-75
2021/07/14 10:23:09;;;;;;;4.30;0.85;;;;;;;40.53;19.09;100957.97;1709100;83;21543;-76
2021/07/14 10:25:39;;;;;;;4.67;1.52;;;;;;;40.51;17.54;100960.17;1708753;83;20948;-77
2021/07/14 10:28:07;;;;;;;3.17;1.00;;;;;;;40.50;19.61;100956.61;1709024;84;20865;-78
2021/07/14 10:30:34;;;;;;;5.12;1.37;;;;;;;40.37;19.00;100947.06;1708721;84;20887;-78
2021/07/14 10:33:01;;;;;;;3.83;1.57;;;;;;;40.37;19.06;100946.25;1708814;84;20932;-76
2021/07/14 10:35:31;;;;;;;2.27;0.90;;;;;;;40.33;19.04;100949.29;1708918;83;21183;-78
2021/07/14 10:38:00;;;;;;;4.17;0.75;;;;;;;40.16;19.06;100945.52;1744488;82;20987;-77
2021/07/14 10:40:29;;;;;;;2.33;1.20;;;;;;;40.01;17.95;100947.78;1744603;81;21446;-77
2021/07/14 10:42:57;;;;;;;4.00;1.10;;;;;;;40.01;19.29;100948.34;1744590;81;20916;-78
2021/07/14 10:45:25;;;;;;;1.92;1.05;;;;;;;40.05;19.82;100957.11;1744920;81;20854;-76
2021/07/14 10:47:54;;;;;;;2.12;0.82;;;;;;;39.95;19.72;100953.84;1709268;84;21083;-76
2021/07/14 10:50:24;;;;;;;7.62;1.52;;;;;;;39.88;19.65;100946.46;1708744;84;20924;-76
2021/07/14 10:52:51;;;;;;;0.70;0.55;;;;;;;39.84;19.36;100946.75;1708880;84;21066;-77
2021/07/14 10:55:24;;;;;;;3.02;1.10;;;;;;;39.88;18.22;100942.89;1710629;83;21061;-78
2021/07/14 10:57:51;;;;;;;3.58;1.52;;;;;;;39.94;19.28;100948.65;1713138;83;20924;-78
2021/07/14 11:00:19;;;;;;;2.70;0.95;;;;;;;39.99;19.93;100948.05;1716899;83;21588;-77
2021/07/14 11:02:51;;;;;;;2.72;0.80;;;;;;;39.87;20.37;100942.08;1716462;83;20915;-77
2021/07/14 11:05:46;;;;;;;2.67;0.72;;;;;;;39.72;20.49;100949.78;1716333;83;20880;-78
2021/07/14 11:08:42;;;;;;;3.10;0.90;;;;;;;39.65;20.13;100939.66;1716461;82;20904;-78
2021/07/14 11:11:16;;;;;;;6.05;2.08;;;;;;;39.63;19.45;100937.73;1736699;82;21393;-78
2021/07/14 11:14:05;;;;;;;4.35;0.90;;;;;;;39.61;20.42;100941.31;1736759;82;21430;-79
2021/07/14 11:16:35;;;;;;;6.53;2.33;;;;;;;39.56;20.30;100949.02;1736729;82;20857;-80
2021/07/14 11:19:09;;;;;;;7.05;1.37;;;;;;;39.42;19.42;100934.20;1736693;82;20976;-79
2021/07/14 11:21:55;;;;;;;2.02;0.65;;;;;;;39.25;20.09;100942.73;1736698;82;21028;-77
2021/07/14 11:24:46;;;;;;;3.37;1.67;;;;;;;39.09;20.66;100939.74;1736729;82;20925;-79
2021/07/14 11:27:30;;;;;;;3.90;0.60;;;;;;;38.92;19.55;100934.49;1736605;82;21123;-75
2021/07/14 11:30:08;;;;;;;1.07;0.80;;;;;;;38.71;20.38;100934.49;1736923;82;21019;-76
2021/07/14 11:32:44;;;;;;;2.80;0.93;;;;;;;38.55;20.21;100943.25;1736770;82;20845;-79
2021/07/14 11:35:23;;;;;;;4.58;1.30;;;;;;;38.40;20.88;100937.70;1736953;82;21457;-76
2021/07/14 11:37:56;;;;;;;1.95;0.70;;;;;;;38.15;21.87;100930.22;1736583;82;20976;-77
2021/07/14 11:40:38;;;;;;;3.77;0.70;;;;;;;37.86;21.70;100929.25;1736623;82;21560;-77